sensor_id;sensor_type;location;lat;lon;timestamp;P1;durP1;ratioP1;P2;durP2;ratioP2
4909;SDS011;2470;49.868;8.660;2024-03-08T00:00:14;23.63;;;13.43;;
4909;SDS011;2470;49.868;8.660;2024-03-08T00:02:42;25.90;;;12.70;;
4909;SDS011;2470;49.868;8.660;2024-03-08T00:05:08;29.13;;;12.97;;
4909;SDS011;2470;49.868;8.660;2024-03-08T00:07:34;26.40;;;12.03;;
4909;SDS011;2470;49.868;8.660;2024-03-08T00:10:01;27.40;;;12.80;;
4909;SDS011;2470;49.868;8.660;2024-03-08T00:12:27;23.47;;;12.03;;
4909;SDS011;2470;49.868;8.660;2024-03-08T00:14:53;26.37;;;13.43;;
4909;SDS011;2470;49.868;8.660;2024-03-08T00:17:19;26.73;;;13.23;;
4909;SDS011;2470;49.868;8.660;2024-03-08T00:19:47;33.10;;;11.53;;
4909;SDS011;2470;49.868;8.660;2024-03-08T00:22:14;22.90;;;10.97;;
4909;SDS011;2470;49.868;8.660;2024-03-08T00:24:41;24.87;;;11.93;;
4909;SDS011;2470;49.868;8.660;2024-03-08T00:27:06;30.37;;;13.40;;
4909;SDS011;2470;49.868;8.660;2024-03-08T00:29:33;26.23;;;12.50;;
4909;SDS011;2470;49.868;8.660;2024-03-08T00:31:59;19.90;;;10.93;;
4909;SDS011;2470;49.868;8.660;2024-03-08T00:34:25;22.47;;;12.37;;
4909;SDS011;2470;49.868;8.660;2024-03-08T00:36:50;24.50;;;12.20;;
4909;SDS011;2470;49.868;8.660;2024-03-08T00:39:17;23.60;;;12.30;;
4909;SDS011;2470;49.868;8.660;2024-03-08T00:41:44;22.03;;;11.53;;
4909;SDS011;2470;49.868;8.660;2024-03-08T00:44:10;21.77;;;11.20;;
4909;SDS011;2470;49.868;8.660;2024-03-08T00:46:36;24.83;;;11.77;;
4909;SDS011;2470;49.868;8.660;2024-03-08T00:49:01;23.83;;;11.83;;
4909;SDS011;2470;49.868;8.660;2024-03-08T00:51:27;26.13;;;12.50;;
4909;SDS011;2470;49.868;8.660;2024-03-08T00:53:53;31.90;;;13.47;;
4909;SDS011;2470;49.868;8.660;2024-03-08T00:56:18;25.40;;;12.33;;
4909;SDS011;2470;49.868;8.660;2024-03-08T00:58:44;17.83;;;10.73;;
4909;SDS011;2470;49.868;8.660;2024-03-08T01:01:09;33.37;;;13.13;;
4909;SDS011;2470;49.868;8.660;2024-03-08T01:03:35;23.93;;;11.80;;
4909;SDS011;2470;49.868;8.660;2024-03-08T01:06:01;24.03;;;11.33;;
4909;SDS011;2470;49.868;8.660;2024-03-08T01:08:27;21.57;;;11.53;;
4909;SDS011;2470;49.868;8.660;2024-03-08T01:10:53;22.50;;;11.97;;
4909;SDS011;2470;49.868;8.660;2024-03-08T01:13:19;30.10;;;11.97;;
4909;SDS011;2470;49.868;8.660;2024-03-08T01:15:44;23.93;;;11.53;;
4909;SDS011;2470;49.868;8.660;2024-03-08T01:18:10;25.53;;;12.93;;
4909;SDS011;2470;49.868;8.660;2024-03-08T01:20:36;26.23;;;12.00;;
4909;SDS011;2470;49.868;8.660;2024-03-08T01:23:02;26.57;;;12.20;;
4909;SDS011;2470;49.868;8.660;2024-03-08T01:25:28;25.40;;;13.07;;
4909;SDS011;2470;49.868;8.660;2024-03-08T01:27:54;26.70;;;12.13;;
4909;SDS011;2470;49.868;8.660;2024-03-08T01:30:19;31.80;;;13.23;;
4909;SDS011;2470;49.868;8.660;2024-03-08T01:32:45;27.00;;;13.27;;
4909;SDS011;2470;49.868;8.660;2024-03-08T01:35:10;30.63;;;11.47;;
4909;SDS011;2470;49.868;8.660;2024-03-08T01:37:36;24.03;;;12.77;;
4909;SDS011;2470;49.868;8.660;2024-03-08T01:40:02;26.33;;;13.80;;
4909;SDS011;2470;49.868;8.660;2024-03-08T01:42:28;24.20;;;13.07;;
4909;SDS011;2470;49.868;8.660;2024-03-08T01:44:54;28.67;;;13.57;;
4909;SDS011;2470;49.868;8.660;2024-03-08T01:47:20;25.83;;;12.30;;
4909;SDS011;2470;49.868;8.660;2024-03-08T01:49:48;26.00;;;12.43;;
4909;SDS011;2470;49.868;8.660;2024-03-08T01:52:17;30.07;;;13.27;;
4909;SDS011;2470;49.868;8.660;2024-03-08T01:54:45;25.07;;;12.97;;
4909;SDS011;2470;49.868;8.660;2024-03-08T01:57:11;27.30;;;12.70;;
4909;SDS011;2470;49.868;8.660;2024-03-08T01:59:38;27.47;;;13.13;;
4909;SDS011;2470;49.868;8.660;2024-03-08T02:02:05;24.93;;;11.97;;
4909;SDS011;2470;49.868;8.660;2024-03-08T02:04:33;26.97;;;11.50;;
4909;SDS011;2470;49.868;8.660;2024-03-08T02:06:59;24.57;;;12.43;;
4909;SDS011;2470;49.868;8.660;2024-03-08T02:09:25;22.73;;;11.13;;
4909;SDS011;2470;49.868;8.660;2024-03-08T02:11:51;34.47;;;14.53;;
4909;SDS011;2470;49.868;8.660;2024-03-08T02:14:19;24.10;;;12.30;;
4909;SDS011;2470;49.868;8.660;2024-03-08T02:16:45;31.53;;;14.60;;
4909;SDS011;2470;49.868;8.660;2024-03-08T02:19:10;20.70;;;11.03;;
4909;SDS011;2470;49.868;8.660;2024-03-08T02:21:37;22.83;;;11.63;;
4909;SDS011;2470;49.868;8.660;2024-03-08T02:24:03;24.20;;;12.03;;
4909;SDS011;2470;49.868;8.660;2024-03-08T02:26:29;23.30;;;10.37;;
4909;SDS011;2470;49.868;8.660;2024-03-08T02:28:54;28.43;;;13.80;;
4909;SDS011;2470;49.868;8.660;2024-03-08T02:31:20;24.93;;;12.63;;
4909;SDS011;2470;49.868;8.660;2024-03-08T02:33:46;27.00;;;13.00;;
4909;SDS011;2470;49.868;8.660;2024-03-08T02:36:12;26.83;;;12.37;;
4909;SDS011;2470;49.868;8.660;2024-03-08T02:38:38;30.03;;;12.63;;
4909;SDS011;2470;49.868;8.660;2024-03-08T02:41:05;24.57;;;13.57;;
4909;SDS011;2470;49.868;8.660;2024-03-08T02:43:31;28.20;;;12.97;;
4909;SDS011;2470;49.868;8.660;2024-03-08T02:45:57;22.97;;;12.67;;
4909;SDS011;2470;49.868;8.660;2024-03-08T02:48:22;23.87;;;12.50;;
4909;SDS011;2470;49.868;8.660;2024-03-08T02:50:48;29.27;;;13.00;;
4909;SDS011;2470;49.868;8.660;2024-03-08T02:53:13;22.97;;;11.10;;
4909;SDS011;2470;49.868;8.660;2024-03-08T02:55:39;21.70;;;11.77;;
4909;SDS011;2470;49.868;8.660;2024-03-08T02:58:06;22.00;;;11.77;;
4909;SDS011;2470;49.868;8.660;2024-03-08T03:00:34;30.33;;;13.00;;
4909;SDS011;2470;49.868;8.660;2024-03-08T03:03:00;30.60;;;14.20;;
4909;SDS011;2470;49.868;8.660;2024-03-08T03:05:27;30.23;;;11.97;;
4909;SDS011;2470;49.868;8.660;2024-03-08T03:07:53;25.50;;;13.70;;
4909;SDS011;2470;49.868;8.660;2024-03-08T03:10:19;25.40;;;11.37;;
4909;SDS011;2470;49.868;8.660;2024-03-08T03:12:46;28.80;;;13.97;;
4909;SDS011;2470;49.868;8.660;2024-03-08T03:15:13;27.50;;;14.53;;
4909;SDS011;2470;49.868;8.660;2024-03-08T03:17:39;31.03;;;13.87;;
4909;SDS011;2470;49.868;8.660;2024-03-08T03:20:08;28.97;;;13.30;;
4909;SDS011;2470;49.868;8.660;2024-03-08T03:22:38;32.70;;;13.47;;
4909;SDS011;2470;49.868;8.660;2024-03-08T03:25:06;40.00;;;13.13;;
4909;SDS011;2470;49.868;8.660;2024-03-08T03:27:32;27.60;;;13.07;;
4909;SDS011;2470;49.868;8.660;2024-03-08T03:29:58;28.63;;;13.60;;
4909;SDS011;2470;49.868;8.660;2024-03-08T03:32:23;25.00;;;12.43;;
4909;SDS011;2470;49.868;8.660;2024-03-08T03:34:49;27.20;;;13.87;;
4909;SDS011;2470;49.868;8.660;2024-03-08T03:37:18;31.93;;;12.13;;
4909;SDS011;2470;49.868;8.660;2024-03-08T03:39:44;26.50;;;14.10;;
4909;SDS011;2470;49.868;8.660;2024-03-08T03:42:18;25.20;;;12.70;;
4909;SDS011;2470;49.868;8.660;2024-03-08T03:44:45;29.00;;;13.53;;
4909;SDS011;2470;49.868;8.660;2024-03-08T03:47:12;29.57;;;12.30;;
4909;SDS011;2470;49.868;8.660;2024-03-08T03:49:37;34.37;;;14.20;;
4909;SDS011;2470;49.868;8.660;2024-03-08T03:52:03;26.47;;;12.10;;
4909;SDS011;2470;49.868;8.660;2024-03-08T03:54:29;29.47;;;13.70;;
4909;SDS011;2470;49.868;8.660;2024-03-08T03:56:55;28.40;;;11.97;;
4909;SDS011;2470;49.868;8.660;2024-03-08T03:59:21;33.17;;;16.17;;
4909;SDS011;2470;49.868;8.660;2024-03-08T04:01:47;34.67;;;13.43;;
4909;SDS011;2470;49.868;8.660;2024-03-08T04:04:13;23.90;;;12.10;;
4909;SDS011;2470;49.868;8.660;2024-03-08T04:06:39;30.03;;;12.73;;
4909;SDS011;2470;49.868;8.660;2024-03-08T04:09:04;33.70;;;14.67;;
4909;SDS011;2470;49.868;8.660;2024-03-08T04:11:30;30.00;;;12.80;;
4909;SDS011;2470;49.868;8.660;2024-03-08T04:13:55;28.20;;;13.17;;
4909;SDS011;2470;49.868;8.660;2024-03-08T04:16:21;31.80;;;14.27;;
4909;SDS011;2470;49.868;8.660;2024-03-08T04:18:46;54.50;;;20.37;;
4909;SDS011;2470;49.868;8.660;2024-03-08T04:21:12;52.93;;;19.87;;
4909;SDS011;2470;49.868;8.660;2024-03-08T04:23:38;61.33;;;20.80;;
4909;SDS011;2470;49.868;8.660;2024-03-08T04:26:04;72.43;;;23.43;;
4909;SDS011;2470;49.868;8.660;2024-03-08T04:28:30;71.83;;;26.70;;
4909;SDS011;2470;49.868;8.660;2024-03-08T04:30:56;59.50;;;21.93;;
4909;SDS011;2470;49.868;8.660;2024-03-08T04:33:22;63.17;;;23.70;;
4909;SDS011;2470;49.868;8.660;2024-03-08T04:35:48;46.63;;;18.87;;
4909;SDS011;2470;49.868;8.660;2024-03-08T04:38:14;41.93;;;19.40;;
4909;SDS011;2470;49.868;8.660;2024-03-08T04:40:40;39.17;;;16.57;;
4909;SDS011;2470;49.868;8.660;2024-03-08T04:43:06;36.77;;;15.43;;
4909;SDS011;2470;49.868;8.660;2024-03-08T04:45:33;31.40;;;15.10;;
4909;SDS011;2470;49.868;8.660;2024-03-08T04:47:59;32.47;;;16.53;;
4909;SDS011;2470;49.868;8.660;2024-03-08T04:50:24;28.93;;;12.87;;
4909;SDS011;2470;49.868;8.660;2024-03-08T04:52:50;29.67;;;14.00;;
4909;SDS011;2470;49.868;8.660;2024-03-08T04:55:15;29.47;;;14.20;;
4909;SDS011;2470;49.868;8.660;2024-03-08T04:57:41;31.30;;;13.40;;
4909;SDS011;2470;49.868;8.660;2024-03-08T05:00:09;23.87;;;13.37;;
4909;SDS011;2470;49.868;8.660;2024-03-08T05:02:39;28.53;;;13.70;;
4909;SDS011;2470;49.868;8.660;2024-03-08T05:05:05;32.00;;;12.50;;
4909;SDS011;2470;49.868;8.660;2024-03-08T05:07:38;30.63;;;12.80;;
4909;SDS011;2470;49.868;8.660;2024-03-08T05:10:04;44.43;;;14.00;;
4909;SDS011;2470;49.868;8.660;2024-03-08T05:12:31;26.37;;;14.57;;
4909;SDS011;2470;49.868;8.660;2024-03-08T05:14:57;30.47;;;13.03;;
4909;SDS011;2470;49.868;8.660;2024-03-08T05:17:23;37.87;;;14.07;;
4909;SDS011;2470;49.868;8.660;2024-03-08T05:19:49;46.87;;;14.40;;
4909;SDS011;2470;49.868;8.660;2024-03-08T05:22:15;29.77;;;13.27;;
4909;SDS011;2470;49.868;8.660;2024-03-08T05:24:41;26.20;;;13.90;;
4909;SDS011;2470;49.868;8.660;2024-03-08T05:27:07;26.37;;;12.50;;
4909;SDS011;2470;49.868;8.660;2024-03-08T05:29:32;28.87;;;12.80;;
4909;SDS011;2470;49.868;8.660;2024-03-08T05:31:58;23.57;;;13.57;;
4909;SDS011;2470;49.868;8.660;2024-03-08T05:34:24;27.97;;;13.50;;
4909;SDS011;2470;49.868;8.660;2024-03-08T05:36:51;28.67;;;14.60;;
4909;SDS011;2470;49.868;8.660;2024-03-08T05:39:18;27.67;;;12.03;;
4909;SDS011;2470;49.868;8.660;2024-03-08T05:41:44;24.37;;;12.97;;
4909;SDS011;2470;49.868;8.660;2024-03-08T05:44:13;28.27;;;13.60;;
4909;SDS011;2470;49.868;8.660;2024-03-08T05:46:39;28.00;;;13.97;;
4909;SDS011;2470;49.868;8.660;2024-03-08T05:49:05;29.93;;;14.00;;
4909;SDS011;2470;49.868;8.660;2024-03-08T05:51:32;27.80;;;13.60;;
4909;SDS011;2470;49.868;8.660;2024-03-08T05:53:59;28.13;;;13.10;;
4909;SDS011;2470;49.868;8.660;2024-03-08T05:56:27;30.80;;;14.50;;
4909;SDS011;2470;49.868;8.660;2024-03-08T05:58:54;24.73;;;12.97;;
4909;SDS011;2470;49.868;8.660;2024-03-08T06:01:19;27.70;;;13.67;;
4909;SDS011;2470;49.868;8.660;2024-03-08T06:03:45;31.67;;;14.47;;
4909;SDS011;2470;49.868;8.660;2024-03-08T06:06:12;24.40;;;11.33;;
4909;SDS011;2470;49.868;8.660;2024-03-08T06:08:38;27.57;;;14.53;;
4909;SDS011;2470;49.868;8.660;2024-03-08T06:11:03;27.37;;;13.37;;
4909;SDS011;2470;49.868;8.660;2024-03-08T06:13:30;30.57;;;14.40;;
4909;SDS011;2470;49.868;8.660;2024-03-08T06:15:56;26.43;;;12.90;;
4909;SDS011;2470;49.868;8.660;2024-03-08T06:18:22;25.53;;;12.57;;
4909;SDS011;2470;49.868;8.660;2024-03-08T06:20:47;37.43;;;15.40;;
4909;SDS011;2470;49.868;8.660;2024-03-08T06:23:13;32.43;;;14.50;;
4909;SDS011;2470;49.868;8.660;2024-03-08T06:25:43;26.63;;;12.57;;
4909;SDS011;2470;49.868;8.660;2024-03-08T06:28:11;32.77;;;13.60;;
4909;SDS011;2470;49.868;8.660;2024-03-08T06:30:37;25.20;;;13.07;;
4909;SDS011;2470;49.868;8.660;2024-03-08T06:33:02;35.07;;;13.60;;
4909;SDS011;2470;49.868;8.660;2024-03-08T06:35:28;29.60;;;13.70;;
4909;SDS011;2470;49.868;8.660;2024-03-08T06:37:56;25.87;;;13.90;;
4909;SDS011;2470;49.868;8.660;2024-03-08T06:40:23;37.00;;;14.60;;
4909;SDS011;2470;49.868;8.660;2024-03-08T06:42:48;32.40;;;15.73;;
4909;SDS011;2470;49.868;8.660;2024-03-08T06:45:14;29.80;;;13.77;;
4909;SDS011;2470;49.868;8.660;2024-03-08T06:47:44;27.50;;;12.80;;
4909;SDS011;2470;49.868;8.660;2024-03-08T06:50:10;27.90;;;14.10;;
4909;SDS011;2470;49.868;8.660;2024-03-08T06:52:36;26.37;;;13.83;;
4909;SDS011;2470;49.868;8.660;2024-03-08T06:55:02;38.23;;;15.50;;
4909;SDS011;2470;49.868;8.660;2024-03-08T06:57:30;34.27;;;14.97;;
4909;SDS011;2470;49.868;8.660;2024-03-08T06:59:58;32.80;;;14.47;;
4909;SDS011;2470;49.868;8.660;2024-03-08T07:02:24;27.93;;;13.50;;
4909;SDS011;2470;49.868;8.660;2024-03-08T07:04:49;30.97;;;14.10;;
4909;SDS011;2470;49.868;8.660;2024-03-08T07:07:15;29.40;;;13.33;;
4909;SDS011;2470;49.868;8.660;2024-03-08T07:09:44;38.70;;;16.00;;
4909;SDS011;2470;49.868;8.660;2024-03-08T07:12:10;28.03;;;13.90;;
4909;SDS011;2470;49.868;8.660;2024-03-08T07:14:38;42.27;;;13.53;;
4909;SDS011;2470;49.868;8.660;2024-03-08T07:17:07;28.30;;;13.47;;
4909;SDS011;2470;49.868;8.660;2024-03-08T07:19:36;29.17;;;14.77;;
4909;SDS011;2470;49.868;8.660;2024-03-08T07:22:03;31.13;;;14.27;;
4909;SDS011;2470;49.868;8.660;2024-03-08T07:24:29;30.97;;;14.40;;
4909;SDS011;2470;49.868;8.660;2024-03-08T07:27:13;31.17;;;14.73;;
4909;SDS011;2470;49.868;8.660;2024-03-08T07:29:39;29.97;;;12.90;;
4909;SDS011;2470;49.868;8.660;2024-03-08T07:32:05;28.40;;;13.57;;
4909;SDS011;2470;49.868;8.660;2024-03-08T07:34:50;25.23;;;14.10;;
4909;SDS011;2470;49.868;8.660;2024-03-08T07:37:16;35.40;;;14.00;;
4909;SDS011;2470;49.868;8.660;2024-03-08T07:39:44;36.70;;;15.80;;
4909;SDS011;2470;49.868;8.660;2024-03-08T07:42:09;27.23;;;13.83;;
4909;SDS011;2470;49.868;8.660;2024-03-08T07:44:35;28.97;;;14.80;;
4909;SDS011;2470;49.868;8.660;2024-03-08T07:47:01;36.03;;;16.60;;
4909;SDS011;2470;49.868;8.660;2024-03-08T07:49:27;24.13;;;14.30;;
4909;SDS011;2470;49.868;8.660;2024-03-08T07:51:52;28.90;;;14.33;;
4909;SDS011;2470;49.868;8.660;2024-03-08T07:54:18;29.50;;;14.73;;
4909;SDS011;2470;49.868;8.660;2024-03-08T07:56:43;31.70;;;14.70;;
4909;SDS011;2470;49.868;8.660;2024-03-08T07:59:09;35.77;;;13.63;;
4909;SDS011;2470;49.868;8.660;2024-03-08T08:01:36;26.73;;;13.17;;
4909;SDS011;2470;49.868;8.660;2024-03-08T08:04:02;36.13;;;15.80;;
4909;SDS011;2470;49.868;8.660;2024-03-08T08:06:28;28.47;;;14.70;;
4909;SDS011;2470;49.868;8.660;2024-03-08T08:08:56;32.10;;;14.80;;
4909;SDS011;2470;49.868;8.660;2024-03-08T08:11:22;27.53;;;14.80;;
4909;SDS011;2470;49.868;8.660;2024-03-08T08:13:47;26.67;;;14.50;;
4909;SDS011;2470;49.868;8.660;2024-03-08T08:16:13;32.93;;;14.37;;
4909;SDS011;2470;49.868;8.660;2024-03-08T08:18:39;31.50;;;15.70;;
4909;SDS011;2470;49.868;8.660;2024-03-08T08:21:05;29.03;;;14.77;;
4909;SDS011;2470;49.868;8.660;2024-03-08T08:23:31;26.63;;;12.60;;
4909;SDS011;2470;49.868;8.660;2024-03-08T08:26:00;28.87;;;13.47;;
4909;SDS011;2470;49.868;8.660;2024-03-08T08:28:28;27.50;;;15.10;;
4909;SDS011;2470;49.868;8.660;2024-03-08T08:30:54;31.83;;;13.73;;
4909;SDS011;2470;49.868;8.660;2024-03-08T08:33:20;29.67;;;14.83;;
4909;SDS011;2470;49.868;8.660;2024-03-08T08:35:45;60.90;;;15.20;;
4909;SDS011;2470;49.868;8.660;2024-03-08T08:38:12;31.30;;;13.20;;
4909;SDS011;2470;49.868;8.660;2024-03-08T08:40:38;32.63;;;14.80;;
4909;SDS011;2470;49.868;8.660;2024-03-08T08:43:03;29.23;;;13.50;;
4909;SDS011;2470;49.868;8.660;2024-03-08T08:45:29;27.33;;;13.43;;
4909;SDS011;2470;49.868;8.660;2024-03-08T08:47:55;30.63;;;13.50;;
4909;SDS011;2470;49.868;8.660;2024-03-08T08:50:21;25.70;;;12.60;;
4909;SDS011;2470;49.868;8.660;2024-03-08T08:52:52;29.97;;;13.53;;
4909;SDS011;2470;49.868;8.660;2024-03-08T08:55:18;29.53;;;12.90;;
4909;SDS011;2470;49.868;8.660;2024-03-08T08:57:46;29.90;;;13.77;;
4909;SDS011;2470;49.868;8.660;2024-03-08T09:00:12;28.50;;;13.20;;
4909;SDS011;2470;49.868;8.660;2024-03-08T09:02:40;23.63;;;12.93;;
4909;SDS011;2470;49.868;8.660;2024-03-08T09:05:06;27.60;;;13.50;;
4909;SDS011;2470;49.868;8.660;2024-03-08T09:07:33;25.00;;;12.80;;
4909;SDS011;2470;49.868;8.660;2024-03-08T09:09:58;27.20;;;12.80;;
4909;SDS011;2470;49.868;8.660;2024-03-08T09:12:24;30.83;;;14.27;;
4909;SDS011;2470;49.868;8.660;2024-03-08T09:14:50;29.93;;;14.07;;
4909;SDS011;2470;49.868;8.660;2024-03-08T09:17:16;30.87;;;12.80;;
4909;SDS011;2470;49.868;8.660;2024-03-08T09:19:47;22.13;;;12.33;;
4909;SDS011;2470;49.868;8.660;2024-03-08T09:22:13;26.03;;;13.00;;
4909;SDS011;2470;49.868;8.660;2024-03-08T09:24:39;24.93;;;13.80;;
4909;SDS011;2470;49.868;8.660;2024-03-08T09:27:04;27.83;;;13.10;;
4909;SDS011;2470;49.868;8.660;2024-03-08T09:29:30;36.30;;;13.90;;
4909;SDS011;2470;49.868;8.660;2024-03-08T09:31:55;35.23;;;13.87;;
4909;SDS011;2470;49.868;8.660;2024-03-08T09:34:21;26.57;;;12.00;;
4909;SDS011;2470;49.868;8.660;2024-03-08T09:36:46;25.83;;;14.03;;
4909;SDS011;2470;49.868;8.660;2024-03-08T09:39:12;24.80;;;12.87;;
4909;SDS011;2470;49.868;8.660;2024-03-08T09:41:44;27.70;;;12.00;;
4909;SDS011;2470;49.868;8.660;2024-03-08T09:44:13;24.00;;;12.80;;
4909;SDS011;2470;49.868;8.660;2024-03-08T09:46:39;29.33;;;13.37;;
4909;SDS011;2470;49.868;8.660;2024-03-08T09:49:05;31.30;;;12.97;;
4909;SDS011;2470;49.868;8.660;2024-03-08T09:51:32;24.97;;;12.97;;
4909;SDS011;2470;49.868;8.660;2024-03-08T09:54:00;25.67;;;12.00;;
4909;SDS011;2470;49.868;8.660;2024-03-08T09:56:26;30.30;;;16.27;;
4909;SDS011;2470;49.868;8.660;2024-03-08T09:58:52;62.20;;;25.67;;
4909;SDS011;2470;49.868;8.660;2024-03-08T10:01:50;79.03;;;26.73;;
4909;SDS011;2470;49.868;8.660;2024-03-08T10:04:17;26.07;;;13.00;;
4909;SDS011;2470;49.868;8.660;2024-03-08T10:06:43;71.83;;;27.17;;
4909;SDS011;2470;49.868;8.660;2024-03-08T10:09:12;54.83;;;23.47;;
4909;SDS011;2470;49.868;8.660;2024-03-08T10:11:37;34.40;;;16.97;;
4909;SDS011;2470;49.868;8.660;2024-03-08T10:14:04;53.97;;;24.67;;
4909;SDS011;2470;49.868;8.660;2024-03-08T10:16:31;33.43;;;15.80;;
4909;SDS011;2470;49.868;8.660;2024-03-08T10:18:56;47.87;;;19.00;;
4909;SDS011;2470;49.868;8.660;2024-03-08T10:21:22;26.20;;;14.60;;
4909;SDS011;2470;49.868;8.660;2024-03-08T10:23:48;38.13;;;18.50;;
4909;SDS011;2470;49.868;8.660;2024-03-08T10:26:14;61.90;;;23.37;;
4909;SDS011;2470;49.868;8.660;2024-03-08T10:28:41;38.33;;;18.53;;
4909;SDS011;2470;49.868;8.660;2024-03-08T10:31:08;41.53;;;16.90;;
4909;SDS011;2470;49.868;8.660;2024-03-08T10:33:34;29.50;;;14.07;;
4909;SDS011;2470;49.868;8.660;2024-03-08T10:36:00;25.87;;;13.80;;
4909;SDS011;2470;49.868;8.660;2024-03-08T10:38:26;36.97;;;14.90;;
4909;SDS011;2470;49.868;8.660;2024-03-08T10:40:53;30.10;;;14.47;;
4909;SDS011;2470;49.868;8.660;2024-03-08T10:43:22;35.23;;;16.97;;
4909;SDS011;2470;49.868;8.660;2024-03-08T10:45:50;27.70;;;13.17;;
4909;SDS011;2470;49.868;8.660;2024-03-08T10:48:43;25.40;;;12.77;;
4909;SDS011;2470;49.868;8.660;2024-03-08T10:51:11;30.33;;;13.10;;
4909;SDS011;2470;49.868;8.660;2024-03-08T10:53:37;25.80;;;11.93;;
4909;SDS011;2470;49.868;8.660;2024-03-08T10:56:06;24.17;;;11.87;;
4909;SDS011;2470;49.868;8.660;2024-03-08T10:58:34;28.33;;;12.70;;
4909;SDS011;2470;49.868;8.660;2024-03-08T11:01:01;31.40;;;13.37;;
4909;SDS011;2470;49.868;8.660;2024-03-08T11:06:06;24.30;;;12.33;;
4909;SDS011;2470;49.868;8.660;2024-03-08T11:08:54;27.37;;;12.40;;
4909;SDS011;2470;49.868;8.660;2024-03-08T11:11:23;24.43;;;12.43;;
4909;SDS011;2470;49.868;8.660;2024-03-08T11:13:57;45.20;;;15.90;;
4909;SDS011;2470;49.868;8.660;2024-03-08T11:18:57;41.47;;;17.07;;
4909;SDS011;2470;49.868;8.660;2024-03-08T11:21:30;26.63;;;14.13;;
4909;SDS011;2470;49.868;8.660;2024-03-08T11:24:02;26.50;;;13.53;;
4909;SDS011;2470;49.868;8.660;2024-03-08T11:26:32;20.93;;;12.13;;
4909;SDS011;2470;49.868;8.660;2024-03-08T11:32:07;29.17;;;14.57;;
4909;SDS011;2470;49.868;8.660;2024-03-08T11:34:40;30.80;;;13.23;;
4909;SDS011;2470;49.868;8.660;2024-03-08T11:37:12;23.00;;;12.17;;
4909;SDS011;2470;49.868;8.660;2024-03-08T11:39:52;28.33;;;13.67;;
4909;SDS011;2470;49.868;8.660;2024-03-08T11:42:24;24.67;;;12.70;;
4909;SDS011;2470;49.868;8.660;2024-03-08T11:44:51;30.10;;;12.77;;
4909;SDS011;2470;49.868;8.660;2024-03-08T11:47:17;38.87;;;14.37;;
4909;SDS011;2470;49.868;8.660;2024-03-08T11:49:43;26.90;;;14.00;;
4909;SDS011;2470;49.868;8.660;2024-03-08T11:52:13;22.17;;;13.23;;
4909;SDS011;2470;49.868;8.660;2024-03-08T11:54:40;26.03;;;13.30;;
4909;SDS011;2470;49.868;8.660;2024-03-08T11:57:06;26.67;;;13.60;;
4909;SDS011;2470;49.868;8.660;2024-03-08T11:59:32;23.80;;;11.03;;
4909;SDS011;2470;49.868;8.660;2024-03-08T12:02:01;24.33;;;12.20;;
4909;SDS011;2470;49.868;8.660;2024-03-08T12:04:28;21.50;;;11.23;;
4909;SDS011;2470;49.868;8.660;2024-03-08T12:06:54;29.90;;;12.73;;
4909;SDS011;2470;49.868;8.660;2024-03-08T12:09:19;23.40;;;12.30;;
4909;SDS011;2470;49.868;8.660;2024-03-08T12:11:47;24.00;;;12.40;;
4909;SDS011;2470;49.868;8.660;2024-03-08T12:14:14;25.70;;;12.70;;
4909;SDS011;2470;49.868;8.660;2024-03-08T12:16:40;26.33;;;13.20;;
4909;SDS011;2470;49.868;8.660;2024-03-08T12:19:07;24.60;;;12.60;;
4909;SDS011;2470;49.868;8.660;2024-03-08T12:21:35;27.73;;;13.40;;
4909;SDS011;2470;49.868;8.660;2024-03-08T12:24:04;24.25;;;13.05;;
4909;SDS011;2470;49.868;8.660;2024-03-08T12:26:37;22.75;;;13.55;;
4909;SDS011;2470;49.868;8.660;2024-03-08T12:29:16;20.38;;;11.05;;
4909;SDS011;2470;49.868;8.660;2024-03-08T12:31:53;24.42;;;11.55;;
4909;SDS011;2470;49.868;8.660;2024-03-08T12:34:20;22.27;;;11.82;;
4909;SDS011;2470;49.868;8.660;2024-03-08T12:36:47;20.55;;;10.65;;
4909;SDS011;2470;49.868;8.660;2024-03-08T12:39:16;21.90;;;10.70;;
4909;SDS011;2470;49.868;8.660;2024-03-08T12:41:46;21.45;;;12.32;;
4909;SDS011;2470;49.868;8.660;2024-03-08T12:44:12;22.80;;;11.52;;
4909;SDS011;2470;49.868;8.660;2024-03-08T12:46:38;35.42;;;20.30;;
4909;SDS011;2470;49.868;8.660;2024-03-08T12:49:09;20.52;;;12.20;;
4909;SDS011;2470;49.868;8.660;2024-03-08T12:51:35;16.77;;;10.15;;
4909;SDS011;2470;49.868;8.660;2024-03-08T12:54:01;19.98;;;10.77;;
4909;SDS011;2470;49.868;8.660;2024-03-08T12:56:34;17.77;;;10.75;;
4909;SDS011;2470;49.868;8.660;2024-03-08T12:59:02;16.08;;;11.07;;
4909;SDS011;2470;49.868;8.660;2024-03-08T13:01:29;16.92;;;10.57;;
4909;SDS011;2470;49.868;8.660;2024-03-08T13:03:57;19.25;;;11.52;;
4909;SDS011;2470;49.868;8.660;2024-03-08T13:06:23;16.23;;;10.63;;
4909;SDS011;2470;49.868;8.660;2024-03-08T13:08:49;20.15;;;10.52;;
4909;SDS011;2470;49.868;8.660;2024-03-08T13:11:17;15.07;;;10.57;;
4909;SDS011;2470;49.868;8.660;2024-03-08T13:13:44;17.10;;;9.73;;
4909;SDS011;2470;49.868;8.660;2024-03-08T13:16:09;18.83;;;11.27;;
4909;SDS011;2470;49.868;8.660;2024-03-08T13:18:37;20.90;;;11.80;;
4909;SDS011;2470;49.868;8.660;2024-03-08T13:21:03;17.83;;;10.38;;
4909;SDS011;2470;49.868;8.660;2024-03-08T13:23:34;16.13;;;10.25;;
4909;SDS011;2470;49.868;8.660;2024-03-08T13:26:04;18.77;;;11.63;;
4909;SDS011;2470;49.868;8.660;2024-03-08T13:28:30;17.45;;;11.05;;
4909;SDS011;2470;49.868;8.660;2024-03-08T13:30:56;18.90;;;11.02;;
4909;SDS011;2470;49.868;8.660;2024-03-08T13:33:26;20.30;;;12.45;;
4909;SDS011;2470;49.868;8.660;2024-03-08T13:35:52;17.92;;;10.50;;
4909;SDS011;2470;49.868;8.660;2024-03-08T13:38:18;18.77;;;10.63;;
4909;SDS011;2470;49.868;8.660;2024-03-08T13:40:45;13.88;;;9.75;;
4909;SDS011;2470;49.868;8.660;2024-03-08T13:43:12;17.48;;;10.07;;
4909;SDS011;2470;49.868;8.660;2024-03-08T13:45:38;15.82;;;10.20;;
4909;SDS011;2470;49.868;8.660;2024-03-08T13:48:03;15.77;;;10.70;;
4909;SDS011;2470;49.868;8.660;2024-03-08T13:50:29;17.40;;;9.85;;
4909;SDS011;2470;49.868;8.660;2024-03-08T13:52:55;14.55;;;9.77;;
4909;SDS011;2470;49.868;8.660;2024-03-08T13:55:21;15.63;;;9.95;;
4909;SDS011;2470;49.868;8.660;2024-03-08T13:57:47;18.58;;;11.35;;
4909;SDS011;2470;49.868;8.660;2024-03-08T14:00:13;17.38;;;10.15;;
4909;SDS011;2470;49.868;8.660;2024-03-08T14:02:40;17.00;;;9.77;;
4909;SDS011;2470;49.868;8.660;2024-03-08T14:05:06;18.48;;;10.30;;
4909;SDS011;2470;49.868;8.660;2024-03-08T14:07:34;16.80;;;10.00;;
4909;SDS011;2470;49.868;8.660;2024-03-08T14:10:00;14.90;;;9.38;;
4909;SDS011;2470;49.868;8.660;2024-03-08T14:12:26;13.63;;;8.93;;
4909;SDS011;2470;49.868;8.660;2024-03-08T14:14:52;20.02;;;10.95;;
4909;SDS011;2470;49.868;8.660;2024-03-08T14:17:18;14.45;;;9.73;;
4909;SDS011;2470;49.868;8.660;2024-03-08T14:19:43;16.92;;;10.02;;
4909;SDS011;2470;49.868;8.660;2024-03-08T14:22:09;16.23;;;10.50;;
4909;SDS011;2470;49.868;8.660;2024-03-08T14:24:39;18.27;;;10.48;;
4909;SDS011;2470;49.868;8.660;2024-03-08T14:27:09;12.00;;;8.45;;
4909;SDS011;2470;49.868;8.660;2024-03-08T14:29:37;12.50;;;9.18;;
4909;SDS011;2470;49.868;8.660;2024-03-08T14:32:03;20.98;;;10.77;;
4909;SDS011;2470;49.868;8.660;2024-03-08T14:34:31;18.00;;;11.18;;
4909;SDS011;2470;49.868;8.660;2024-03-08T14:36:58;17.92;;;10.23;;
4909;SDS011;2470;49.868;8.660;2024-03-08T14:39:25;18.17;;;11.10;;
4909;SDS011;2470;49.868;8.660;2024-03-08T14:41:51;18.17;;;10.30;;
4909;SDS011;2470;49.868;8.660;2024-03-08T14:44:19;23.05;;;11.48;;
4909;SDS011;2470;49.868;8.660;2024-03-08T14:46:44;18.85;;;10.25;;
4909;SDS011;2470;49.868;8.660;2024-03-08T14:49:11;25.17;;;11.25;;
4909;SDS011;2470;49.868;8.660;2024-03-08T14:51:36;28.83;;;10.90;;
4909;SDS011;2470;49.868;8.660;2024-03-08T14:54:02;16.10;;;8.68;;